createdAt,value
2019-05-09T00:01:14.002Z,35.20
2019-05-09T00:06:19.258Z,35.30
2019-05-09T00:11:25.161Z,35.30
2019-05-09T00:16:30.653Z,35.30
2019-05-09T00:21:43.140Z,36.10
2019-05-09T00:26:48.370Z,35.60
2019-05-09T00:32:13.724Z,35.50
2019-05-09T00:37:21.044Z,35.60
2019-05-09T00:42:26.822Z,35.70
2019-05-09T00:47:33.040Z,35.70
2019-05-09T00:52:38.705Z,35.80
2019-05-09T00:57:45.668Z,35.80
2019-05-09T01:02:54.029Z,35.80
2019-05-09T01:07:58.916Z,36.70
2019-05-09T01:13:04.901Z,35.90
2019-05-09T01:18:10.433Z,35.90
2019-05-09T01:23:16.247Z,36.00
2019-05-09T01:28:23.201Z,36.20
2019-05-09T01:33:53.948Z,36.20
2019-05-09T01:38:59.710Z,36.20
2019-05-09T01:44:05.403Z,36.20
2019-05-09T01:49:13.668Z,36.20
2019-05-09T01:54:20.835Z,36.30
2019-05-09T01:59:26.582Z,36.50
2019-05-09T02:04:33.885Z,36.50
2019-05-09T02:09:43.315Z,36.60
2019-05-09T02:15:05.200Z,36.60
2019-05-09T02:20:10.788Z,36.70
2019-05-09T02:25:17.036Z,36.70
2019-05-09T02:30:25.317Z,36.80
2019-05-09T02:35:38.819Z,36.90
2019-05-09T02:40:39.395Z,36.90
2019-05-09T02:45:59.516Z,37.10
2019-05-09T02:51:05.010Z,37.20
2019-05-09T02:56:11.740Z,37.40
2019-05-09T03:01:39.096Z,37.30
2019-05-09T03:06:43.860Z,37.50
2019-05-09T03:11:49.444Z,37.60
2019-05-09T03:16:55.015Z,37.60
2019-05-09T03:22:08.745Z,38.30
2019-05-09T03:27:20.153Z,37.70
2019-05-09T03:32:29.413Z,37.80
2019-05-09T03:37:33.215Z,37.90
2019-05-09T03:42:43.605Z,38.00
2019-05-09T03:47:54.637Z,38.20
2019-05-09T03:53:00.658Z,38.30
2019-05-09T03:58:18.603Z,38.30
2019-05-09T04:03:24.405Z,38.30
2019-05-09T04:08:29.980Z,38.40
2019-05-09T04:13:44.167Z,38.40
2019-05-09T04:18:51.592Z,38.50
2019-05-09T04:23:58.485Z,38.70
2019-05-09T04:29:04.235Z,38.80
2019-05-09T04:34:10.019Z,40.20
2019-05-09T04:39:23.137Z,39.80
2019-05-09T04:44:57.428Z,39.80
2019-05-09T04:49:59.468Z,39.70
2019-05-09T04:55:07.744Z,39.90
2019-05-09T05:00:14.528Z,39.80
2019-05-09T05:05:20.208Z,39.90
2019-05-09T05:10:27.336Z,39.90
2019-05-09T05:15:32.900Z,40.00
2019-05-09T05:20:38.821Z,40.10
2019-05-09T05:25:47.582Z,40.20
2019-05-09T05:30:53.341Z,40.40
2019-05-09T05:36:00.905Z,40.50
2019-05-09T05:41:07.995Z,40.70
2019-05-09T05:46:38.642Z,40.80
2019-05-09T05:51:50.543Z,41.00
2019-05-09T05:56:57.802Z,41.30
2019-05-09T06:02:03.810Z,41.30
2019-05-09T06:07:09.423Z,41.40
2019-05-09T06:12:15.507Z,41.80
2019-05-09T06:17:21.226Z,41.80
2019-05-09T06:22:27.560Z,42.80
2019-05-09T06:27:33.353Z,42.20
2019-05-09T06:32:39.052Z,42.40
2019-05-09T06:37:44.677Z,42.40
2019-05-09T06:42:50.219Z,42.50
2019-05-09T06:47:58.287Z,42.50
2019-05-09T06:53:03.428Z,42.50
2019-05-09T06:58:47.979Z,42.60
2019-05-09T07:03:57.570Z,42.80
2019-05-09T07:09:25.130Z,42.80
2019-05-09T07:14:41.838Z,42.90
2019-05-09T07:19:48.758Z,43.00
2019-05-09T07:25:18.428Z,43.10
2019-05-09T07:30:42.460Z,43.20
2019-05-09T07:35:48.258Z,43.20
2019-05-09T07:40:53.828Z,43.40
2019-05-09T07:46:08.876Z,43.70
2019-05-09T07:51:15.042Z,43.70
2019-05-09T07:56:21.820Z,43.90
2019-05-09T08:01:28.188Z,43.90
2019-05-09T08:06:35.057Z,43.90
2019-05-09T08:11:41.282Z,44.10
2019-05-09T08:16:47.628Z,44.20
2019-05-09T08:21:53.476Z,44.20
2019-05-09T08:26:59.038Z,44.20
2019-05-09T08:32:04.596Z,44.30
2019-05-09T08:37:12.591Z,44.40
2019-05-09T08:42:17.987Z,44.50
2019-05-09T08:47:24.556Z,44.50
2019-05-09T08:52:30.212Z,44.50
2019-05-09T08:57:37.552Z,44.60
2019-05-09T09:02:42.821Z,44.70
2019-05-09T09:07:49.178Z,45.50
2019-05-09T09:12:54.917Z,44.60
2019-05-09T09:18:00.402Z,44.70
2019-05-09T09:23:08.568Z,44.70
2019-05-09T09:28:13.444Z,44.70
2019-05-09T09:33:19.005Z,44.90
2019-05-09T09:38:24.553Z,44.80
2019-05-09T09:43:30.235Z,45.00
2019-05-09T09:48:38.651Z,45.10
2019-05-09T09:53:43.235Z,45.10
2019-05-09T09:58:57.696Z,44.80
2019-05-09T10:04:18.634Z,44.60
2019-05-09T10:09:14.366Z,44.60
2019-05-09T10:14:24.785Z,44.70
2019-05-09T10:19:48.469Z,44.60
2019-05-09T10:24:54.100Z,44.80
2019-05-09T10:29:59.697Z,44.60
2019-05-09T10:35:05.416Z,44.60
2019-05-09T10:40:14.976Z,44.50
2019-05-09T10:45:42.452Z,44.50
2019-05-09T10:50:54.162Z,44.50
2019-05-09T10:55:55.777Z,44.60
2019-05-09T11:01:01.341Z,45.80
2019-05-09T11:06:08.549Z,47.30
2019-05-09T11:11:14.474Z,47.80
2019-05-09T11:16:20.362Z,47.60
2019-05-09T11:21:28.661Z,47.40
2019-05-09T11:26:34.237Z,47.10
2019-05-09T11:31:39.989Z,46.20
2019-05-09T11:36:45.678Z,44.80
2019-05-09T11:41:51.350Z,43.60
2019-05-09T11:46:58.235Z,43.50
2019-05-09T11:52:05.256Z,43.20
2019-05-09T11:57:11.180Z,42.80
2019-05-09T12:02:18.064Z,42.80
2019-05-09T12:07:25.338Z,42.70
2019-05-09T12:12:30.921Z,42.40
2019-05-09T12:17:52.951Z,41.80
2019-05-09T12:22:44.061Z,41.70
2019-05-09T12:27:49.769Z,41.60
2019-05-09T12:32:55.850Z,41.20
2019-05-09T12:38:01.444Z,40.70
2019-05-09T12:43:09.088Z,40.10
2019-05-09T12:48:15.831Z,40.20
2019-05-09T12:53:21.701Z,40.00
2019-05-09T12:58:27.964Z,39.80
2019-05-09T13:03:34.152Z,39.90
2019-05-09T13:08:39.695Z,40.20
2019-05-09T13:13:47.839Z,40.00
2019-05-09T13:19:06.863Z,39.90
2019-05-09T13:24:12.685Z,39.70
2019-05-09T13:29:18.472Z,39.20
2019-05-09T13:34:24.122Z,38.70
2019-05-09T13:39:29.912Z,38.80
2019-05-09T13:44:40.631Z,38.50
2019-05-09T13:49:42.908Z,38.30
2019-05-09T13:54:48.651Z,38.10
2019-05-09T13:59:54.037Z,38.00
2019-05-09T14:04:59.791Z,37.90
2019-05-09T14:10:08.966Z,37.30
2019-05-09T14:15:13.842Z,37.20
2019-05-09T14:20:19.570Z,37.10
2019-05-09T14:25:25.076Z,37.00
2019-05-09T14:30:30.660Z,37.00
2019-05-09T14:35:38.515Z,36.90
2019-05-09T14:40:44.741Z,36.80
2019-05-09T14:45:50.410Z,36.80
2019-05-09T14:50:58.195Z,36.60
2019-05-09T14:56:03.362Z,36.30
2019-05-09T15:01:09.477Z,36.30
2019-05-09T15:06:17.975Z,36.30
2019-05-09T15:11:22.822Z,36.10
2019-05-09T15:16:28.480Z,36.00
2019-05-09T15:21:34.403Z,35.80
2019-05-09T15:26:40.012Z,35.80
2019-05-09T15:31:53.130Z,35.70
2019-05-09T15:36:53.050Z,35.70
2019-05-09T15:41:58.653Z,35.60
2019-05-09T15:47:18.382Z,35.60
2019-05-09T15:52:25.003Z,35.50
2019-05-09T15:57:30.833Z,35.40
2019-05-09T16:02:39.071Z,35.40
2019-05-09T16:07:43.888Z,35.30
2019-05-09T16:12:49.692Z,35.30
2019-05-09T16:17:55.264Z,35.40
2019-05-09T16:23:00.993Z,35.80
2019-05-09T16:28:08.203Z,35.60
2019-05-09T16:33:14.410Z,35.40
2019-05-09T16:38:20.194Z,35.40
2019-05-09T16:43:26.044Z,35.70
2019-05-09T16:48:31.648Z,35.30
2019-05-09T16:53:37.396Z,35.10
2019-05-09T16:58:43.433Z,34.90
2019-05-09T17:03:49.100Z,34.90
2019-05-09T17:08:54.703Z,34.60
2019-05-09T17:14:00.502Z,34.50
2019-05-09T17:19:06.161Z,34.50
2019-05-09T17:24:15.017Z,34.50
2019-05-09T17:29:20.803Z,34.50
2019-05-09T17:34:28.676Z,34.50
2019-05-09T17:39:33.632Z,34.50
2019-05-09T17:44:40.216Z,34.40
2019-05-09T17:49:48.074Z,34.40
2019-05-09T17:54:55.579Z,34.40
2019-05-09T18:00:01.681Z,34.70
2019-05-09T18:05:07.856Z,34.90
2019-05-09T18:10:15.033Z,35.20
2019-05-09T18:15:21.514Z,35.30
2019-05-09T18:20:28.340Z,35.60
2019-05-09T18:25:34.510Z,35.70
2019-05-09T18:30:40.383Z,35.90
2019-05-09T18:35:47.750Z,36.00
2019-05-09T18:40:53.893Z,36.10
2019-05-09T18:45:59.946Z,36.40
2019-05-09T18:51:07.330Z,36.40
2019-05-09T18:56:13.250Z,36.60
2019-05-09T19:01:19.281Z,36.60
2019-05-09T19:06:25.196Z,36.80
2019-05-09T19:11:31.260Z,36.90
2019-05-09T19:16:46.238Z,37.10
2019-05-09T19:21:58.444Z,37.20
2019-05-09T19:27:05.563Z,37.30
2019-05-09T19:32:11.392Z,37.40
2019-05-09T19:37:17.281Z,37.60
2019-05-09T19:42:24.118Z,37.70
2019-05-09T19:47:30.178Z,37.80
2019-05-09T19:52:38.422Z,37.90
2019-05-09T19:57:43.745Z,38.10
2019-05-09T20:02:49.664Z,38.20
2019-05-09T20:07:55.558Z,38.30
2019-05-09T20:13:30.942Z,38.40
2019-05-09T20:18:37.109Z,38.60
2019-05-09T20:23:43.185Z,38.50
2019-05-09T20:28:49.045Z,38.50
2019-05-09T20:33:54.815Z,38.70
2019-05-09T20:39:01.064Z,38.70
2019-05-09T20:44:08.894Z,38.80
2019-05-09T20:49:15.868Z,38.90
2019-05-09T20:54:22.069Z,39.00
2019-05-09T20:59:28.993Z,39.00
2019-05-09T21:04:36.534Z,39.10
2019-05-09T21:09:44.996Z,39.30
2019-05-09T21:14:51.334Z,39.20
2019-05-09T21:19:59.626Z,39.30
2019-05-09T21:25:09.696Z,39.50
2019-05-09T21:30:17.842Z,39.50
2019-05-09T21:35:24.573Z,39.80
2019-05-09T21:40:30.261Z,39.80
2019-05-09T21:45:36.349Z,39.90
2019-05-09T21:50:43.549Z,40.00
2019-05-09T21:55:49.473Z,40.00
2019-05-09T22:00:57.062Z,40.10
2019-05-09T22:06:04.071Z,40.20
2019-05-09T22:11:09.725Z,40.10
2019-05-09T22:16:15.679Z,40.20
2019-05-09T22:21:24.357Z,40.10
2019-05-09T22:26:32.245Z,40.10
2019-05-09T22:31:38.141Z,40.10
2019-05-09T22:36:44.029Z,40.10
2019-05-09T22:41:49.686Z,40.00
2019-05-09T22:46:55.552Z,40.10
2019-05-09T22:52:02.750Z,40.10
2019-05-09T22:57:08.428Z,40.20
2019-05-09T23:02:13.968Z,40.10
2019-05-09T23:07:20.722Z,40.20
2019-05-09T23:12:26.545Z,40.30
2019-05-09T23:17:32.701Z,40.30
2019-05-09T23:22:38.430Z,40.40
2019-05-09T23:27:44.348Z,40.40
2019-05-09T23:32:50.032Z,40.50
2019-05-09T23:37:55.910Z,40.60
2019-05-09T23:43:01.786Z,40.80
2019-05-09T23:48:07.569Z,40.70
2019-05-09T23:53:15.123Z,40.80
2019-05-09T23:58:40.388Z,40.80
